IBE3MB LPPT-LEPA
Flight info
| Callsign | IBE3MB |
|---|---|
| Flight time | 1h 31m |
| Altitude | 36000 |
| Route | ORVED DCT UREDI DCT NVS/N0460F350 DCT NANDO DCT FENXE DCT MABUX DCT RETBA DCT MOPIR DCT LASPO/N0461F360 DCT ORVUS M871 GODOX |
| Aircraft | A346/H-SDE2E3FGHIJ3J4J5M1RWXY/LB1D1 |
Departure
| Time | 2026-05-07 18:27 |
|---|---|
| Airport | Lisbon Humberto Delgado Airport (LPPT) |
Arrival
| Time | 2026-05-07 19:58 |
|---|---|
| Airport | Palma de Mallorca Airport (LEPA) |
| Time | Latitude | Longitude | Altitude | Speed | Heading |
|---|---|---|---|---|---|
| 2026-05-07 17:31 | 38.76940 | -9.13750 | 359 ft | 0 kts | 78° |
| 2026-05-07 18:16 | 38.76934 | -9.13790 | 360 ft | 0 kts | 78° |
| 2026-05-07 18:16 | 38.76934 | -9.13789 | 360 ft | 0 kts | 78° |
| 2026-05-07 18:17 | 38.76930 | -9.13815 | 363 ft | 1 kts | 78° |
| 2026-05-07 18:17 | 38.76925 | -9.13848 | 364 ft | 0 kts | 78° |
| 2026-05-07 18:17 | 38.76924 | -9.13855 | 361 ft | 0 kts | 78° |
| 2026-05-07 18:17 | 38.76924 | -9.13856 | 361 ft | 0 kts | 81° |
| 2026-05-07 18:18 | 38.76923 | -9.13862 | 361 ft | 0 kts | 85° |
| 2026-05-07 18:18 | 38.76923 | -9.13867 | 361 ft | 1 kts | 107° |
| 2026-05-07 18:18 | 38.76925 | -9.13873 | 366 ft | 0 kts | 146° |
| 2026-05-07 18:20 | 38.76921 | -9.13869 | 361 ft | 3 kts | 146° |
| 2026-05-07 18:20 | 38.76872 | -9.13841 | 363 ft | 13 kts | 164° |
| 2026-05-07 18:20 | 38.76766 | -9.13809 | 358 ft | 18 kts | 168° |
| 2026-05-07 18:20 | 38.76652 | -9.13782 | 357 ft | 13 kts | 181° |
| 2026-05-07 18:21 | 38.76594 | -9.13865 | 355 ft | 15 kts | 255° |
| 2026-05-07 18:21 | 38.76561 | -9.14005 | 359 ft | 18 kts | 238° |
| 2026-05-07 18:21 | 38.76495 | -9.14144 | 359 ft | 19 kts | 266° |
| 2026-05-07 18:21 | 38.76525 | -9.14268 | 350 ft | 0 kts | 293° |
| 2026-05-07 18:25 | 38.76526 | -9.14272 | 347 ft | 5 kts | 293° |
| 2026-05-07 18:25 | 38.76575 | -9.14393 | 353 ft | 13 kts | 326° |
| 2026-05-07 18:25 | 38.76639 | -9.14390 | 350 ft | 0 kts | 20° |
| 2026-05-07 18:26 | 38.76700 | -9.14359 | 355 ft | 36 kts | 22° |
| 2026-05-07 18:26 | 38.77160 | -9.14118 | 364 ft | 104 kts | 22° |
| 2026-05-07 18:27 | 38.78016 | -9.13655 | 377 ft | 161 kts | 23° |
| 2026-05-07 18:27 | 38.79112 | -9.12988 | 742 ft | 181 kts | 23° |
| 2026-05-07 18:27 | 38.80209 | -9.12205 | 1455 ft | 184 kts | 28° |
| 2026-05-07 18:27 | 38.80956 | -9.11635 | 1958 ft | 185 kts | 25° |
| 2026-05-07 18:28 | 38.82495 | -9.10510 | 2733 ft | 198 kts | 24° |
| 2026-05-07 18:28 | 38.83739 | -9.09645 | 3154 ft | 214 kts | 24° |
| 2026-05-07 18:28 | 38.85100 | -9.08708 | 3636 ft | 230 kts | 24° |
| 2026-05-07 18:28 | 38.86581 | -9.07708 | 4070 ft | 252 kts | 25° |
| 2026-05-07 18:29 | 38.88215 | -9.06604 | 4653 ft | 271 kts | 28° |
| 2026-05-07 18:29 | 38.89716 | -9.05061 | 5312 ft | 283 kts | 52° |
| 2026-05-07 18:29 | 38.90731 | -9.02928 | 6207 ft | 284 kts | 67° |
| 2026-05-07 18:29 | 38.91572 | -9.00600 | 7190 ft | 285 kts | 69° |
| 2026-05-07 18:30 | 38.92373 | -8.98295 | 8112 ft | 289 kts | 69° |
| 2026-05-07 18:30 | 38.93223 | -8.95890 | 9074 ft | 293 kts | 68° |
| 2026-05-07 18:30 | 38.94076 | -8.93532 | 10010 ft | 297 kts | 68° |
| 2026-05-07 18:30 | 38.94967 | -8.91101 | 10784 ft | 307 kts | 68° |
| 2026-05-07 18:31 | 38.95920 | -8.88511 | 11357 ft | 325 kts | 67° |
| 2026-05-07 18:31 | 38.96905 | -8.85849 | 11864 ft | 343 kts | 67° |
| 2026-05-07 18:31 | 38.97961 | -8.83001 | 12361 ft | 362 kts | 67° |
| 2026-05-07 18:31 | 38.99074 | -8.80001 | 12849 ft | 381 kts | 67° |
| 2026-05-07 18:32 | 39.00239 | -8.76866 | 13496 ft | 393 kts | 66° |
| 2026-05-07 18:32 | 39.01427 | -8.73677 | 14340 ft | 397 kts | 66° |
| 2026-05-07 18:32 | 39.02625 | -8.70459 | 15170 ft | 401 kts | 66° |
| 2026-05-07 18:32 | 39.03838 | -8.67194 | 15958 ft | 407 kts | 66° |
| 2026-05-07 18:33 | 39.05066 | -8.63883 | 16722 ft | 413 kts | 66° |
| 2026-05-07 18:33 | 39.06309 | -8.60523 | 17541 ft | 418 kts | 66° |
| 2026-05-07 18:33 | 39.07564 | -8.57125 | 18316 ft | 423 kts | 66° |
| 2026-05-07 18:33 | 39.08832 | -8.53677 | 18979 ft | 428 kts | 66° |
| 2026-05-07 18:34 | 39.10117 | -8.50182 | 19605 ft | 434 kts | 66° |
| 2026-05-07 18:34 | 39.11417 | -8.46642 | 20197 ft | 441 kts | 66° |
| 2026-05-07 18:34 | 39.12741 | -8.43039 | 20816 ft | 447 kts | 66° |
| 2026-05-07 18:34 | 39.14082 | -8.39383 | 21448 ft | 453 kts | 66° |
| 2026-05-07 18:35 | 39.15435 | -8.35691 | 22061 ft | 459 kts | 66° |
| 2026-05-07 18:35 | 39.16810 | -8.31930 | 22631 ft | 466 kts | 65° |
| 2026-05-07 18:35 | 39.18201 | -8.28121 | 23162 ft | 473 kts | 65° |
| 2026-05-07 18:35 | 39.19612 | -8.24262 | 23646 ft | 479 kts | 65° |
| 2026-05-07 18:36 | 39.21034 | -8.20364 | 23883 ft | 480 kts | 65° |
| 2026-05-07 18:36 | 39.22454 | -8.16466 | 23887 ft | 478 kts | 65° |
| 2026-05-07 18:36 | 39.23871 | -8.12574 | 23892 ft | 478 kts | 65° |
| 2026-05-07 18:36 | 39.25261 | -8.08747 | 23896 ft | 478 kts | 65° |
| 2026-05-07 18:37 | 39.26668 | -8.04864 | 23900 ft | 478 kts | 65° |
| 2026-05-07 18:37 | 39.28036 | -8.00876 | 23889 ft | 477 kts | 68° |
| 2026-05-07 18:37 | 39.29228 | -7.96917 | 24012 ft | 485 kts | 70° |
| 2026-05-07 18:37 | 39.30566 | -7.92902 | 24604 ft | 487 kts | 65° |
| 2026-05-07 18:38 | 39.32037 | -7.88954 | 25308 ft | 487 kts | 64° |
| 2026-05-07 18:38 | 39.33538 | -7.85015 | 25882 ft | 491 kts | 64° |
| 2026-05-07 18:38 | 39.35045 | -7.81037 | 26414 ft | 495 kts | 64° |
| 2026-05-07 18:38 | 39.36555 | -7.77008 | 26966 ft | 498 kts | 64° |
| 2026-05-07 18:39 | 39.38059 | -7.72955 | 27473 ft | 502 kts | 64° |
| 2026-05-07 18:39 | 39.39078 | -7.70193 | 27847 ft | 505 kts | 64° |
| 2026-05-07 18:39 | 39.40591 | -7.66076 | 28465 ft | 506 kts | 64° |
| 2026-05-07 18:39 | 39.42095 | -7.61966 | 29283 ft | 503 kts | 64° |
| 2026-05-07 18:40 | 39.43582 | -7.57889 | 30074 ft | 500 kts | 64° |
| 2026-05-07 18:40 | 39.45065 | -7.53819 | 30720 ft | 499 kts | 63° |
| 2026-05-07 18:40 | 39.46547 | -7.49754 | 31266 ft | 500 kts | 63° |
| 2026-05-07 18:40 | 39.48035 | -7.45667 | 31761 ft | 502 kts | 63° |
| 2026-05-07 18:41 | 39.49507 | -7.41617 | 32251 ft | 504 kts | 63° |
| 2026-05-07 18:41 | 39.51001 | -7.37502 | 32777 ft | 505 kts | 63° |
| 2026-05-07 18:41 | 39.52494 | -7.33379 | 33308 ft | 506 kts | 63° |
| 2026-05-07 18:41 | 39.53990 | -7.29244 | 33769 ft | 507 kts | 63° |
| 2026-05-07 18:42 | 39.55491 | -7.25087 | 33850 ft | 508 kts | 63° |
| 2026-05-07 18:42 | 39.58473 | -7.16802 | 33861 ft | 507 kts | 63° |
| 2026-05-07 18:43 | 39.61446 | -7.08519 | 33854 ft | 505 kts | 63° |
| 2026-05-07 18:43 | 39.64415 | -7.00247 | 33844 ft | 505 kts | 63° |
| 2026-05-07 18:44 | 39.67366 | -6.91991 | 33843 ft | 505 kts | 63° |
| 2026-05-07 18:44 | 39.70316 | -6.83708 | 33842 ft | 505 kts | 63° |
| 2026-05-07 18:45 | 39.73258 | -6.75409 | 33842 ft | 505 kts | 63° |
| 2026-05-07 18:45 | 39.74739 | -6.71239 | 33951 ft | 510 kts | 63° |
| 2026-05-07 18:45 | 39.76227 | -6.67043 | 34436 ft | 509 kts | 63° |
| 2026-05-07 18:45 | 39.77704 | -6.62864 | 34966 ft | 508 kts | 63° |
| 2026-05-07 18:46 | 39.79182 | -6.58678 | 35380 ft | 509 kts | 63° |
| 2026-05-07 18:46 | 39.80666 | -6.54468 | 35698 ft | 512 kts | 63° |
| 2026-05-07 18:46 | 39.82157 | -6.50232 | 35845 ft | 516 kts | 63° |
| 2026-05-07 18:47 | 39.85122 | -6.41720 | 35845 ft | 516 kts | 64° |
| 2026-05-07 18:47 | 39.87612 | -6.32943 | 35856 ft | 516 kts | 70° |
| 2026-05-07 18:48 | 39.89803 | -6.24033 | 35845 ft | 515 kts | 70° |
| 2026-05-07 18:48 | 39.91977 | -6.15120 | 35852 ft | 516 kts | 70° |
| 2026-05-07 18:49 | 39.94154 | -6.06205 | 35873 ft | 516 kts | 70° |
| 2026-05-07 18:49 | 39.96332 | -5.97277 | 35864 ft | 516 kts | 70° |
| 2026-05-07 18:50 | 39.98492 | -5.88419 | 35873 ft | 516 kts | 70° |
| 2026-05-07 18:50 | 40.00664 | -5.79477 | 35872 ft | 516 kts | 70° |
| 2026-05-07 18:51 | 40.02824 | -5.70542 | 35889 ft | 516 kts | 70° |
| 2026-05-07 18:51 | 40.04976 | -5.61585 | 35885 ft | 515 kts | 70° |
| 2026-05-07 18:52 | 40.07124 | -5.52642 | 35881 ft | 515 kts | 70° |
| 2026-05-07 18:52 | 40.09263 | -5.43701 | 35890 ft | 515 kts | 70° |
| 2026-05-07 18:53 | 40.11396 | -5.34747 | 35888 ft | 515 kts | 70° |
| 2026-05-07 18:53 | 40.13514 | -5.25794 | 35912 ft | 514 kts | 69° |
| 2026-05-07 18:54 | 40.15624 | -5.16873 | 35897 ft | 512 kts | 69° |
| 2026-05-07 18:54 | 40.17722 | -5.07965 | 35899 ft | 512 kts | 70° |
| 2026-05-07 18:55 | 40.19810 | -4.99058 | 35899 ft | 512 kts | 70° |
| 2026-05-07 18:55 | 40.21891 | -4.90133 | 35910 ft | 513 kts | 69° |
| 2026-05-07 18:56 | 40.23970 | -4.81198 | 35905 ft | 513 kts | 69° |
| 2026-05-07 18:56 | 40.26046 | -4.72247 | 35909 ft | 513 kts | 69° |
| 2026-05-07 18:57 | 40.28112 | -4.63300 | 35908 ft | 513 kts | 70° |
| 2026-05-07 18:57 | 40.30173 | -4.54330 | 35922 ft | 514 kts | 70° |
| 2026-05-07 18:58 | 40.32231 | -4.45340 | 35921 ft | 515 kts | 70° |
| 2026-05-07 18:58 | 40.34269 | -4.36337 | 35920 ft | 515 kts | 71° |
| 2026-05-07 18:59 | 40.35534 | -4.27042 | 35920 ft | 520 kts | 83° |
| 2026-05-07 18:59 | 40.35438 | -4.17551 | 35924 ft | 521 kts | 96° |
| 2026-05-07 19:00 | 40.34077 | -4.08203 | 35923 ft | 521 kts | 104° |
| 2026-05-07 19:00 | 40.32379 | -3.98962 | 35928 ft | 521 kts | 104° |
| 2026-05-07 19:01 | 40.30706 | -3.89716 | 35924 ft | 521 kts | 104° |
| 2026-05-07 19:01 | 40.29058 | -3.80465 | 35942 ft | 521 kts | 103° |
| 2026-05-07 19:02 | 40.27404 | -3.71169 | 35913 ft | 524 kts | 103° |
| 2026-05-07 19:02 | 40.25755 | -3.61920 | 35912 ft | 524 kts | 103° |
| 2026-05-07 19:03 | 40.24076 | -3.52554 | 35912 ft | 524 kts | 104° |
| 2026-05-07 19:03 | 40.22410 | -3.43317 | 35928 ft | 524 kts | 104° |
| 2026-05-07 19:04 | 40.20719 | -3.34006 | 35930 ft | 526 kts | 103° |
| 2026-05-07 19:04 | 40.19026 | -3.24685 | 35925 ft | 526 kts | 104° |
| 2026-05-07 19:05 | 40.17319 | -3.15364 | 35922 ft | 526 kts | 104° |
| 2026-05-07 19:05 | 40.15604 | -3.06045 | 35931 ft | 526 kts | 104° |
| 2026-05-07 19:06 | 40.13881 | -2.96738 | 35933 ft | 527 kts | 104° |
| 2026-05-07 19:06 | 40.11283 | -2.82751 | 35938 ft | 527 kts | 104° |
| 2026-05-07 19:07 | 40.09542 | -2.73436 | 35948 ft | 527 kts | 104° |
| 2026-05-07 19:07 | 40.07790 | -2.64122 | 35955 ft | 527 kts | 104° |
| 2026-05-07 19:08 | 40.06032 | -2.54820 | 35958 ft | 527 kts | 104° |
| 2026-05-07 19:08 | 40.04273 | -2.45535 | 35957 ft | 527 kts | 104° |
| 2026-05-07 19:09 | 40.02504 | -2.36247 | 35967 ft | 526 kts | 104° |
| 2026-05-07 19:09 | 40.00725 | -2.26970 | 35974 ft | 526 kts | 104° |
| 2026-05-07 19:10 | 39.98586 | -2.17994 | 35972 ft | 513 kts | 112° |
| 2026-05-07 19:10 | 39.95653 | -2.09618 | 35987 ft | 505 kts | 121° |
| 2026-05-07 19:11 | 39.92236 | -2.01620 | 35988 ft | 504 kts | 122° |
| 2026-05-07 19:11 | 39.88814 | -1.93656 | 35998 ft | 504 kts | 121° |
| 2026-05-07 19:12 | 39.85411 | -1.85684 | 36000 ft | 500 kts | 121° |
| 2026-05-07 19:12 | 39.82039 | -1.77776 | 36004 ft | 499 kts | 121° |
| 2026-05-07 19:13 | 39.78665 | -1.69882 | 35966 ft | 499 kts | 121° |
| 2026-05-07 19:13 | 39.75257 | -1.61933 | 36004 ft | 504 kts | 121° |
| 2026-05-07 19:14 | 39.71828 | -1.53958 | 35994 ft | 505 kts | 122° |
| 2026-05-07 19:14 | 39.68404 | -1.46021 | 35980 ft | 502 kts | 121° |
| 2026-05-07 19:15 | 39.64987 | -1.38117 | 35966 ft | 501 kts | 122° |
| 2026-05-07 19:15 | 39.61574 | -1.30243 | 35957 ft | 501 kts | 122° |
| 2026-05-07 19:16 | 39.58143 | -1.22353 | 35949 ft | 501 kts | 122° |
| 2026-05-07 19:16 | 39.54699 | -1.14451 | 35949 ft | 505 kts | 122° |
| 2026-05-07 19:17 | 39.51246 | -1.06559 | 35962 ft | 501 kts | 122° |
| 2026-05-07 19:17 | 39.47810 | -0.98718 | 35973 ft | 500 kts | 122° |
| 2026-05-07 19:18 | 39.44369 | -0.90891 | 35984 ft | 500 kts | 122° |
| 2026-05-07 19:18 | 39.40936 | -0.83055 | 35987 ft | 500 kts | 122° |
| 2026-05-07 19:19 | 39.37486 | -0.75227 | 35896 ft | 501 kts | 122° |
| 2026-05-07 19:19 | 39.35763 | -0.71331 | 35572 ft | 496 kts | 122° |
| 2026-05-07 19:19 | 39.34058 | -0.67489 | 35212 ft | 490 kts | 122° |
| 2026-05-07 19:20 | 39.32376 | -0.63635 | 34897 ft | 495 kts | 120° |
| 2026-05-07 19:20 | 39.30921 | -0.59578 | 34576 ft | 499 kts | 112° |
| 2026-05-07 19:20 | 39.29806 | -0.55316 | 34270 ft | 502 kts | 105° |
| 2026-05-07 19:20 | 39.29066 | -0.50907 | 33960 ft | 503 kts | 97° |
| 2026-05-07 19:21 | 39.28715 | -0.46413 | 33615 ft | 502 kts | 89° |
| 2026-05-07 19:21 | 39.28747 | -0.41969 | 33261 ft | 499 kts | 83° |
| 2026-05-07 19:21 | 39.28994 | -0.37499 | 32918 ft | 499 kts | 81° |
| 2026-05-07 19:21 | 39.29290 | -0.32965 | 32573 ft | 499 kts | 81° |
| 2026-05-07 19:22 | 39.29571 | -0.28554 | 32230 ft | 499 kts | 82° |
| 2026-05-07 19:22 | 39.29837 | -0.24077 | 31904 ft | 499 kts | 82° |
| 2026-05-07 19:22 | 39.30085 | -0.19597 | 31572 ft | 499 kts | 82° |
| 2026-05-07 19:22 | 39.30322 | -0.15127 | 31242 ft | 496 kts | 83° |
| 2026-05-07 19:23 | 39.30549 | -0.10703 | 30910 ft | 490 kts | 83° |
| 2026-05-07 19:23 | 39.30769 | -0.06336 | 30604 ft | 484 kts | 83° |
| 2026-05-07 19:23 | 39.30986 | -0.02014 | 30288 ft | 478 kts | 83° |
| 2026-05-07 19:23 | 39.31205 | 0.02249 | 29966 ft | 474 kts | 84° |
| 2026-05-07 19:24 | 39.31419 | 0.06506 | 29251 ft | 475 kts | 84° |
| 2026-05-07 19:24 | 39.31628 | 0.10759 | 28328 ft | 472 kts | 85° |
| 2026-05-07 19:24 | 39.31833 | 0.14978 | 27541 ft | 467 kts | 85° |
| 2026-05-07 19:24 | 39.32034 | 0.19152 | 26755 ft | 461 kts | 86° |
| 2026-05-07 19:25 | 39.32231 | 0.23260 | 25993 ft | 455 kts | 86° |
| 2026-05-07 19:25 | 39.32360 | 0.25951 | 25506 ft | 451 kts | 87° |
| 2026-05-07 19:25 | 39.32551 | 0.29975 | 24776 ft | 446 kts | 88° |
| 2026-05-07 19:25 | 39.32740 | 0.33965 | 24070 ft | 442 kts | 88° |
| 2026-05-07 19:26 | 39.32925 | 0.37910 | 23342 ft | 437 kts | 89° |
| 2026-05-07 19:26 | 39.33103 | 0.41808 | 22517 ft | 431 kts | 89° |
| 2026-05-07 19:26 | 39.33276 | 0.45665 | 21728 ft | 428 kts | 88° |
| 2026-05-07 19:26 | 39.33447 | 0.49515 | 20949 ft | 429 kts | 88° |
| 2026-05-07 19:27 | 39.33618 | 0.53376 | 20211 ft | 431 kts | 88° |
| 2026-05-07 19:27 | 39.33790 | 0.57263 | 19527 ft | 433 kts | 88° |
| 2026-05-07 19:27 | 39.33963 | 0.61170 | 18797 ft | 435 kts | 88° |
| 2026-05-07 19:27 | 39.34135 | 0.65071 | 18060 ft | 436 kts | 88° |
| 2026-05-07 19:28 | 39.34306 | 0.68978 | 17454 ft | 432 kts | 88° |
| 2026-05-07 19:28 | 39.34474 | 0.72842 | 16721 ft | 427 kts | 87° |
| 2026-05-07 19:28 | 39.34638 | 0.76623 | 15897 ft | 413 kts | 87° |
| 2026-05-07 19:28 | 39.34800 | 0.80238 | 15372 ft | 393 kts | 88° |
| 2026-05-07 19:29 | 39.34953 | 0.83736 | 14962 ft | 387 kts | 87° |
| 2026-05-07 19:29 | 39.35099 | 0.87201 | 14478 ft | 384 kts | 87° |
| 2026-05-07 19:29 | 39.35246 | 0.90632 | 14001 ft | 381 kts | 87° |
| 2026-05-07 19:29 | 39.35389 | 0.94041 | 13492 ft | 377 kts | 87° |
| 2026-05-07 19:30 | 39.35530 | 0.97423 | 12960 ft | 374 kts | 86° |
| 2026-05-07 19:30 | 39.35667 | 1.00766 | 12438 ft | 371 kts | 86° |
| 2026-05-07 19:30 | 39.35803 | 1.04081 | 11927 ft | 367 kts | 86° |
| 2026-05-07 19:30 | 39.35937 | 1.07368 | 11408 ft | 364 kts | 86° |
| 2026-05-07 19:31 | 39.36070 | 1.10620 | 10909 ft | 361 kts | 86° |
| 2026-05-07 19:31 | 39.36200 | 1.13844 | 10414 ft | 357 kts | 85° |
| 2026-05-07 19:31 | 39.36332 | 1.17037 | 10030 ft | 351 kts | 86° |
| 2026-05-07 19:31 | 39.36455 | 1.20128 | 9950 ft | 335 kts | 87° |
| 2026-05-07 19:32 | 39.36567 | 1.23068 | 9934 ft | 319 kts | 87° |
| 2026-05-07 19:32 | 39.36673 | 1.25856 | 9936 ft | 306 kts | 87° |
| 2026-05-07 19:32 | 39.36783 | 1.28690 | 9939 ft | 322 kts | 87° |
| 2026-05-07 19:32 | 39.36897 | 1.31676 | 9942 ft | 339 kts | 87° |
| 2026-05-07 19:33 | 39.37015 | 1.34758 | 9939 ft | 350 kts | 87° |
| 2026-05-07 19:33 | 39.37136 | 1.37911 | 9944 ft | 359 kts | 87° |
| 2026-05-07 19:33 | 39.37334 | 1.41154 | 9942 ft | 367 kts | 83° |
| 2026-05-07 19:33 | 39.37692 | 1.44450 | 9935 ft | 370 kts | 80° |
| 2026-05-07 19:34 | 39.38122 | 1.47749 | 9942 ft | 372 kts | 80° |
| 2026-05-07 19:34 | 39.38562 | 1.51043 | 9940 ft | 371 kts | 80° |
| 2026-05-07 19:34 | 39.39001 | 1.54337 | 9945 ft | 369 kts | 80° |
| 2026-05-07 19:34 | 39.39423 | 1.57526 | 9941 ft | 350 kts | 80° |
| 2026-05-07 19:35 | 39.39825 | 1.60571 | 9935 ft | 339 kts | 80° |
| 2026-05-07 19:35 | 39.40219 | 1.63576 | 9941 ft | 338 kts | 80° |
| 2026-05-07 19:35 | 39.40613 | 1.66579 | 9938 ft | 338 kts | 80° |
| 2026-05-07 19:35 | 39.41005 | 1.69581 | 9946 ft | 338 kts | 80° |
| 2026-05-07 19:36 | 39.41397 | 1.72590 | 9955 ft | 338 kts | 80° |
| 2026-05-07 19:36 | 39.41788 | 1.75599 | 9952 ft | 338 kts | 80° |
| 2026-05-07 19:36 | 39.42177 | 1.78602 | 9953 ft | 337 kts | 80° |
| 2026-05-07 19:36 | 39.42556 | 1.81533 | 9941 ft | 322 kts | 80° |
| 2026-05-07 19:37 | 39.42920 | 1.84353 | 9950 ft | 316 kts | 80° |
| 2026-05-07 19:37 | 39.43282 | 1.87161 | 9952 ft | 316 kts | 80° |
| 2026-05-07 19:37 | 39.43643 | 1.89968 | 9953 ft | 314 kts | 80° |
| 2026-05-07 19:37 | 39.43990 | 1.92695 | 9953 ft | 299 kts | 79° |
| 2026-05-07 19:38 | 39.44321 | 1.95287 | 9940 ft | 284 kts | 79° |
| 2026-05-07 19:38 | 39.44644 | 1.97793 | 9948 ft | 282 kts | 79° |
| 2026-05-07 19:38 | 39.44958 | 2.00243 | 9949 ft | 270 kts | 79° |
| 2026-05-07 19:38 | 39.45315 | 2.02599 | 9670 ft | 265 kts | 75° |
| 2026-05-07 19:39 | 39.45841 | 2.04887 | 9273 ft | 265 kts | 70° |
| 2026-05-07 19:39 | 39.46435 | 2.07154 | 8859 ft | 265 kts | 70° |
| 2026-05-07 19:39 | 39.47030 | 2.09392 | 8443 ft | 259 kts | 70° |
| 2026-05-07 19:39 | 39.47607 | 2.11572 | 8067 ft | 253 kts | 70° |
| 2026-05-07 19:40 | 39.48161 | 2.13669 | 7961 ft | 237 kts | 70° |
| 2026-05-07 19:40 | 39.48768 | 2.15646 | 7950 ft | 236 kts | 54° |
| 2026-05-07 19:40 | 39.49947 | 2.17044 | 7953 ft | 237 kts | 25° |
| 2026-05-07 19:40 | 39.51558 | 2.17455 | 7967 ft | 240 kts | 359° |
| 2026-05-07 19:41 | 39.53220 | 2.17231 | 8001 ft | 240 kts | 353° |
| 2026-05-07 19:41 | 39.54868 | 2.16878 | 7977 ft | 240 kts | 352° |
| 2026-05-07 19:41 | 39.56511 | 2.16498 | 7966 ft | 240 kts | 352° |
| 2026-05-07 19:41 | 39.58151 | 2.16118 | 7964 ft | 239 kts | 352° |
| 2026-05-07 19:42 | 39.59790 | 2.15740 | 7963 ft | 239 kts | 352° |
| 2026-05-07 19:42 | 39.61425 | 2.15362 | 7963 ft | 239 kts | 352° |
| 2026-05-07 19:42 | 39.63063 | 2.14985 | 7960 ft | 239 kts | 352° |
| 2026-05-07 19:42 | 39.64699 | 2.14606 | 7959 ft | 239 kts | 352° |
| 2026-05-07 19:43 | 39.66336 | 2.14227 | 7966 ft | 239 kts | 352° |
| 2026-05-07 19:43 | 39.67975 | 2.13846 | 7964 ft | 239 kts | 352° |
| 2026-05-07 19:43 | 39.69612 | 2.13464 | 7966 ft | 239 kts | 352° |
| 2026-05-07 19:43 | 39.71248 | 2.13079 | 7964 ft | 239 kts | 352° |
| 2026-05-07 19:44 | 39.72886 | 2.12693 | 7966 ft | 239 kts | 352° |
| 2026-05-07 19:44 | 39.74522 | 2.12307 | 7964 ft | 239 kts | 352° |
| 2026-05-07 19:44 | 39.76157 | 2.11922 | 7965 ft | 239 kts | 352° |
| 2026-05-07 19:44 | 39.77798 | 2.11898 | 7950 ft | 236 kts | 18° |
| 2026-05-07 19:45 | 39.79185 | 2.12976 | 7955 ft | 235 kts | 49° |
| 2026-05-07 19:45 | 39.79909 | 2.14873 | 7961 ft | 240 kts | 80° |
| 2026-05-07 19:45 | 39.79746 | 2.17024 | 7964 ft | 244 kts | 110° |
| 2026-05-07 19:45 | 39.78724 | 2.18795 | 7963 ft | 251 kts | 141° |
| 2026-05-07 19:46 | 39.77185 | 2.19886 | 7980 ft | 253 kts | 154° |
| 2026-05-07 19:46 | 39.75556 | 2.20756 | 7973 ft | 253 kts | 156° |
| 2026-05-07 19:46 | 39.73918 | 2.21579 | 7968 ft | 253 kts | 157° |
| 2026-05-07 19:46 | 39.72282 | 2.22392 | 7964 ft | 246 kts | 157° |
| 2026-05-07 19:47 | 39.70726 | 2.23160 | 7952 ft | 232 kts | 157° |
| 2026-05-07 19:47 | 39.69261 | 2.23876 | 7940 ft | 218 kts | 156° |
| 2026-05-07 19:47 | 39.67880 | 2.24539 | 7945 ft | 209 kts | 156° |
| 2026-05-07 19:47 | 39.66519 | 2.25189 | 7957 ft | 208 kts | 156° |
| 2026-05-07 19:48 | 39.65160 | 2.25837 | 7964 ft | 208 kts | 156° |
| 2026-05-07 19:48 | 39.63802 | 2.26483 | 7966 ft | 208 kts | 156° |
| 2026-05-07 19:48 | 39.62442 | 2.27131 | 7968 ft | 208 kts | 156° |
| 2026-05-07 19:48 | 39.61082 | 2.27778 | 7968 ft | 208 kts | 156° |
| 2026-05-07 19:49 | 39.59739 | 2.28415 | 7844 ft | 204 kts | 156° |
| 2026-05-07 19:49 | 39.58399 | 2.29050 | 7530 ft | 206 kts | 156° |
| 2026-05-07 19:49 | 39.57054 | 2.29688 | 7278 ft | 205 kts | 156° |
| 2026-05-07 19:49 | 39.55734 | 2.30318 | 7025 ft | 204 kts | 156° |
| 2026-05-07 19:50 | 39.54389 | 2.30955 | 6813 ft | 201 kts | 156° |
| 2026-05-07 19:50 | 39.53100 | 2.31559 | 6607 ft | 199 kts | 156° |
| 2026-05-07 19:50 | 39.51800 | 2.32167 | 6361 ft | 198 kts | 156° |
| 2026-05-07 19:50 | 39.50503 | 2.32771 | 6104 ft | 198 kts | 156° |
| 2026-05-07 19:51 | 39.49207 | 2.33370 | 5882 ft | 197 kts | 156° |
| 2026-05-07 19:51 | 39.47922 | 2.33969 | 5612 ft | 197 kts | 156° |
| 2026-05-07 19:51 | 39.46695 | 2.34706 | 5380 ft | 191 kts | 132° |
| 2026-05-07 19:51 | 39.46022 | 2.36107 | 5165 ft | 183 kts | 105° |
| 2026-05-07 19:52 | 39.45731 | 2.37707 | 4880 ft | 183 kts | 98° |
| 2026-05-07 19:52 | 39.45515 | 2.39343 | 4658 ft | 184 kts | 97° |
| 2026-05-07 19:52 | 39.45316 | 2.40979 | 4394 ft | 183 kts | 97° |
| 2026-05-07 19:52 | 39.45127 | 2.42610 | 4190 ft | 183 kts | 97° |
| 2026-05-07 19:53 | 39.44935 | 2.44234 | 3994 ft | 182 kts | 97° |
| 2026-05-07 19:53 | 39.44744 | 2.45852 | 3744 ft | 182 kts | 97° |
| 2026-05-07 19:53 | 39.44562 | 2.47470 | 3539 ft | 180 kts | 94° |
| 2026-05-07 19:53 | 39.44652 | 2.49072 | 3279 ft | 179 kts | 74° |
| 2026-05-07 19:54 | 39.45089 | 2.50570 | 3053 ft | 177 kts | 63° |
| 2026-05-07 19:54 | 39.45687 | 2.51958 | 3015 ft | 178 kts | 59° |
| 2026-05-07 19:54 | 39.46340 | 2.53320 | 3000 ft | 178 kts | 59° |
| 2026-05-07 19:54 | 39.47002 | 2.54688 | 2950 ft | 179 kts | 58° |
| 2026-05-07 19:55 | 39.47656 | 2.56056 | 2751 ft | 178 kts | 59° |
| 2026-05-07 19:55 | 39.48304 | 2.57427 | 2484 ft | 178 kts | 59° |
| 2026-05-07 19:55 | 39.48940 | 2.58782 | 2212 ft | 175 kts | 59° |
| 2026-05-07 19:55 | 39.49570 | 2.60127 | 1967 ft | 174 kts | 59° |
| 2026-05-07 19:56 | 39.50194 | 2.61459 | 1731 ft | 172 kts | 59° |
| 2026-05-07 19:56 | 39.50816 | 2.62785 | 1502 ft | 171 kts | 58° |
| 2026-05-07 19:56 | 39.51434 | 2.64100 | 1278 ft | 171 kts | 59° |
| 2026-05-07 19:56 | 39.52044 | 2.65398 | 1048 ft | 163 kts | 58° |
| 2026-05-07 19:57 | 39.52618 | 2.66618 | 818 ft | 156 kts | 58° |
| 2026-05-07 19:57 | 39.53170 | 2.67800 | 638 ft | 150 kts | 57° |
| 2026-05-07 19:57 | 39.53698 | 2.68913 | 475 ft | 140 kts | 56° |
| 2026-05-07 19:57 | 39.54217 | 2.69998 | 252 ft | 139 kts | 58° |
| 2026-05-07 19:58 | 39.54711 | 2.71034 | 60 ft | 133 kts | 58° |
| 2026-05-07 19:58 | 39.55122 | 2.71923 | 47 ft | 85 kts | 59° |
| 2026-05-07 19:58 | 39.55359 | 2.72432 | 47 ft | 59 kts | 58° |
| 2026-05-07 19:58 | 39.55489 | 2.72776 | 47 ft | 33 kts | 81° |
| 2026-05-07 19:59 | 39.55499 | 2.73002 | 47 ft | 20 kts | 89° |
| 2026-05-07 19:59 | 39.55500 | 2.73076 | 47 ft | 0 kts | 88° |
| 2026-05-07 19:59 | 39.55500 | 2.73077 | 47 ft | 0 kts | 88° |
| 2026-05-07 20:01 | 39.55500 | 2.73086 | 47 ft | 5 kts | 86° |
| 2026-05-07 20:02 | 39.55508 | 2.73171 | 47 ft | 13 kts | 76° |
| 2026-05-07 20:02 | 39.55561 | 2.73305 | 47 ft | 20 kts | 58° |
| 2026-05-07 20:02 | 39.55621 | 2.73442 | 47 ft | 15 kts | 81° |
| 2026-05-07 20:02 | 39.55554 | 2.73554 | 47 ft | 19 kts | 147° |
| 2026-05-07 20:03 | 39.55431 | 2.73649 | 47 ft | 22 kts | 148° |
| 2026-05-07 20:03 | 39.55290 | 2.73761 | 47 ft | 25 kts | 149° |
| 2026-05-07 20:03 | 39.55132 | 2.73886 | 47 ft | 28 kts | 148° |
| 2026-05-07 20:03 | 39.54961 | 2.74021 | 47 ft | 30 kts | 149° |
| 2026-05-07 20:04 | 39.54839 | 2.74114 | 47 ft | 15 kts | 158° |
| 2026-05-07 20:04 | 39.54750 | 2.74044 | 47 ft | 19 kts | 237° |
| 2026-05-07 20:04 | 39.54676 | 2.73888 | 47 ft | 22 kts | 238° |
| 2026-05-07 20:04 | 39.54607 | 2.73743 | 47 ft | 16 kts | 238° |
| 2026-05-07 20:05 | 39.54598 | 2.73623 | 45 ft | 16 kts | 299° |
| 2026-05-07 20:05 | 39.54670 | 2.73516 | 47 ft | 17 kts | 326° |
| 2026-05-07 20:05 | 39.54741 | 2.73461 | 47 ft | 9 kts | 330° |
| 2026-05-07 20:05 | 39.54784 | 2.73413 | 47 ft | 7 kts | 303° |
| 2026-05-07 20:06 | 39.54792 | 2.73361 | 47 ft | 2 kts | 268° |